YIO weather

Pond Inlet Airport
Pond Inlet, Nunavut, Canada

Public forecast

Using degrees Celsius for public forecast. Weather courtesy of forecast.io.

METAR (pilot weather report)

Retrieved 2019/04/23 21:00 UTC (31 minutes ago):

CYIO 232100Z 18004KT 40SM FEW210 M26/M29 A2997 RMK CI1 CI TR SLP161

TAF (pilot weather forecast)

Retrieved 2019/04/23 19:39 UTC (2 hours ago):

TAF CYIO 231838Z 2319/2407 22005KT P6SM SKC RMK NXT FCST BY 240100Z